createdAt,value
2019-02-22T00:01:21.145Z,50.38
2019-02-22T00:03:47.756Z,49.53
2019-02-22T00:06:13.965Z,49.90
2019-02-22T00:08:41.840Z,52.13
2019-02-22T00:11:08.905Z,57.73
2019-02-22T00:13:35.899Z,57.88
2019-02-22T00:16:02.094Z,56.88
2019-02-22T00:18:28.231Z,49.25
2019-02-22T00:20:56.811Z,54.38
2019-02-22T00:23:24.322Z,60.17
2019-02-22T00:25:50.524Z,64.05
2019-02-22T00:28:19.793Z,65.78
2019-02-22T00:30:48.885Z,57.65
2019-02-22T00:33:16.832Z,46.48
2019-02-22T00:35:43.032Z,63.75
2019-02-22T00:38:10.859Z,51.00
2019-02-22T00:40:37.044Z,51.13
2019-02-22T00:43:03.152Z,54.00
2019-02-22T00:45:29.369Z,60.83
2019-02-22T00:47:55.488Z,62.83
2019-02-22T00:50:21.677Z,62.25
2019-02-22T00:52:51.687Z,69.30
2019-02-22T00:55:17.901Z,41.15
2019-02-22T00:57:44.829Z,53.95
2019-02-22T01:00:11.034Z,42.35
2019-02-22T01:02:37.203Z,49.05
2019-02-22T01:05:05.893Z,52.33
2019-02-22T01:07:32.021Z,43.78
2019-02-22T01:09:58.220Z,51.92
2019-02-22T01:12:24.318Z,53.55
2019-02-22T01:14:53.733Z,54.30
2019-02-22T01:17:22.719Z,46.30
2019-02-22T01:19:48.932Z,50.80
2019-02-22T01:22:15.378Z,53.65
2019-02-22T01:24:41.576Z,53.15
2019-02-22T01:27:07.735Z,48.85
2019-02-22T01:29:33.944Z,50.17
2019-02-22T01:32:04.872Z,55.78
2019-02-22T01:34:31.089Z,51.83
2019-02-22T01:36:57.201Z,56.15
2019-02-22T01:39:23.939Z,48.60
2019-02-22T01:41:50.081Z,47.83
2019-02-22T01:44:17.833Z,45.70
2019-02-22T01:46:44.087Z,53.68
2019-02-22T01:49:10.345Z,46.98
2019-02-22T01:51:37.948Z,46.53
2019-02-22T01:54:05.893Z,50.40
2019-02-22T01:56:34.725Z,53.70
2019-02-22T01:59:04.751Z,51.65
2019-02-22T02:01:31.463Z,49.50
2019-02-22T02:03:57.916Z,43.95
2019-02-22T02:06:24.194Z,41.70
2019-02-22T02:08:50.389Z,36.83
2019-02-22T02:11:19.753Z,37.20
2019-02-22T02:13:45.967Z,42.33
2019-02-22T02:16:12.078Z,51.80
2019-02-22T02:18:38.284Z,41.02
2019-02-22T02:21:04.423Z,42.38
2019-02-22T02:23:31.915Z,29.67
2019-02-22T02:25:58.084Z,38.02
2019-02-22T02:28:24.315Z,47.65
2019-02-22T02:30:50.511Z,59.85
2019-02-22T02:33:18.031Z,78.55
2019-02-22T02:35:45.611Z,82.57
2019-02-22T02:38:14.815Z,78.70
2019-02-22T02:40:43.974Z,87.45
2019-02-22T02:43:10.973Z,84.45
2019-02-22T02:45:37.215Z,85.20
2019-02-22T02:48:03.457Z,87.05
2019-02-22T02:50:33.487Z,93.05
2019-02-22T02:52:59.701Z,55.30
2019-02-22T02:55:40.682Z,93.82
2019-02-22T02:58:06.870Z,82.82
2019-02-22T03:00:33.015Z,92.62
2019-02-22T03:02:59.154Z,83.82
2019-02-22T03:05:31.712Z,82.30
2019-02-22T03:08:02.902Z,98.33
2019-02-22T03:10:31.483Z,84.17
2019-02-22T03:12:57.209Z,90.85
2019-02-22T03:15:25.828Z,71.22
2019-02-22T03:17:54.912Z,83.07
2019-02-22T03:20:21.046Z,73.57
2019-02-22T03:22:47.197Z,87.10
2019-02-22T03:25:13.402Z,63.75
2019-02-22T03:27:40.603Z,61.33
2019-02-22T03:30:08.846Z,79.22
2019-02-22T03:32:37.009Z,38.38
2019-02-22T03:35:05.315Z,65.67
2019-02-22T03:37:32.609Z,61.85
2019-02-22T03:40:00.976Z,57.13
2019-02-22T03:42:30.903Z,49.38
2019-02-22T03:44:59.919Z,47.83
2019-02-22T03:47:26.012Z,43.68
2019-02-22T03:49:52.714Z,34.63
2019-02-22T03:52:25.714Z,35.05
2019-02-22T03:54:51.952Z,36.63
2019-02-22T03:57:18.052Z,32.38
2019-02-22T03:59:44.278Z,32.50
2019-02-22T04:02:10.496Z,33.00
2019-02-22T04:04:38.011Z,33.63
2019-02-22T04:07:04.213Z,26.75
2019-02-22T04:09:30.371Z,23.55
2019-02-22T04:11:56.611Z,24.70
2019-02-22T04:14:22.855Z,26.52
2019-02-22T04:16:49.059Z,33.60
2019-02-22T04:19:18.209Z,29.37
2019-02-22T04:21:47.023Z,38.80
2019-02-22T04:24:14.007Z,31.70
2019-02-22T04:26:43.933Z,39.25
2019-02-22T04:29:10.255Z,35.95
2019-02-22T04:31:36.378Z,32.17
2019-02-22T04:34:02.652Z,39.63
2019-02-22T04:36:28.853Z,41.53
2019-02-22T04:38:54.940Z,43.87
2019-02-22T04:41:21.116Z,38.63
2019-02-22T04:43:50.848Z,34.75
2019-02-22T04:46:18.282Z,41.33
2019-02-22T04:48:48.233Z,39.45
2019-02-22T04:51:17.445Z,38.45
2019-02-22T04:53:43.697Z,37.13
2019-02-22T04:56:09.908Z,35.33
2019-02-22T04:58:36.036Z,29.27
2019-02-22T05:01:02.222Z,27.22
2019-02-22T05:03:28.317Z,28.87
2019-02-22T05:05:54.576Z,31.90
2019-02-22T05:08:20.670Z,31.20
2019-02-22T05:10:52.855Z,31.00
2019-02-22T05:13:20.006Z,36.50
2019-02-22T05:15:46.259Z,31.15
2019-02-22T05:18:12.412Z,34.45
2019-02-22T05:20:38.643Z,37.42
2019-02-22T05:23:07.454Z,33.48
2019-02-22T05:25:32.847Z,30.97
2019-02-22T05:27:59.152Z,30.37
2019-02-22T05:30:25.399Z,26.85
2019-02-22T05:32:51.758Z,24.72
2019-02-22T05:35:18.023Z,24.35
2019-02-22T05:37:44.267Z,21.73
2019-02-22T05:40:10.464Z,22.25
2019-02-22T05:42:39.539Z,20.88
2019-02-22T05:45:05.938Z,20.08
2019-02-22T05:47:32.043Z,34.80
2019-02-22T05:49:58.241Z,13.22
2019-02-22T05:52:24.382Z,10.40
2019-02-22T05:54:50.747Z,10.70
2019-02-22T05:57:17.945Z,11.28
2019-02-22T05:59:44.104Z,10.50
2019-02-22T06:02:10.389Z,10.95
2019-02-22T06:04:37.261Z,11.10
2019-02-22T06:07:03.538Z,11.18
2019-02-22T06:09:29.766Z,11.53
2019-02-22T06:11:59.572Z,11.22
2019-02-22T06:14:26.436Z,11.12
2019-02-22T06:16:52.890Z,10.68
2019-02-22T06:19:20.705Z,9.38
2019-02-22T06:21:47.340Z,9.85
2019-02-22T06:24:14.234Z,9.50
2019-02-22T06:26:40.810Z,9.48
2019-02-22T06:29:07.041Z,8.63
2019-02-22T06:31:34.831Z,7.95
2019-02-22T06:34:04.143Z,8.23
2019-02-22T06:36:30.221Z,8.08
2019-02-22T06:38:56.421Z,8.13
2019-02-22T06:41:24.000Z,9.20
2019-02-22T06:43:50.217Z,7.42
2019-02-22T06:46:17.977Z,6.50
2019-02-22T06:48:44.424Z,8.48
2019-02-22T06:51:10.578Z,9.15
2019-02-22T06:53:39.959Z,7.35
2019-02-22T06:56:07.971Z,6.55
2019-02-22T06:58:34.296Z,7.65
2019-02-22T07:01:00.404Z,7.45
2019-02-22T07:03:26.615Z,8.30
2019-02-22T07:05:52.717Z,9.03
2019-02-22T07:08:19.014Z,8.05
2019-02-22T07:10:47.151Z,7.08
2019-02-22T07:13:13.383Z,7.83
2019-02-22T07:15:39.485Z,6.25
2019-02-22T07:18:05.680Z,7.25
2019-02-22T07:20:38.234Z,7.20
2019-02-22T07:23:04.871Z,6.83
2019-02-22T07:25:31.093Z,6.92
2019-02-22T07:27:57.310Z,6.72
2019-02-22T07:30:23.952Z,7.20
2019-02-22T07:32:54.352Z,7.33
2019-02-22T07:35:20.732Z,7.97
2019-02-22T07:37:49.127Z,7.35
2019-02-22T07:40:15.262Z,7.40
2019-02-22T07:42:43.084Z,7.40
2019-02-22T07:45:09.515Z,7.62
2019-02-22T07:47:35.698Z,7.22
2019-02-22T07:50:01.904Z,8.35
2019-02-22T07:52:28.682Z,11.35
2019-02-22T07:54:55.822Z,10.48
2019-02-22T07:57:22.387Z,12.85
2019-02-22T07:59:49.020Z,10.05
2019-02-22T08:02:15.511Z,11.18
2019-02-22T08:04:42.071Z,8.60
2019-02-22T08:07:08.399Z,10.70
2019-02-22T08:09:34.734Z,8.98
2019-02-22T08:12:00.982Z,9.10
2019-02-22T08:14:32.329Z,8.25
2019-02-22T08:16:58.568Z,9.18
2019-02-22T08:19:35.360Z,8.38
2019-02-22T08:22:11.280Z,8.35
2019-02-22T08:24:42.169Z,8.20
2019-02-22T08:27:12.307Z,7.92
2019-02-22T08:42:39.814Z,8.90
2019-02-22T08:45:10.060Z,7.92
2019-02-22T08:47:36.520Z,6.50
2019-02-22T08:50:04.328Z,6.60
2019-02-22T08:52:30.637Z,7.25
2019-02-22T08:54:56.884Z,7.25
2019-02-22T08:57:23.255Z,7.87
2019-02-22T08:59:49.496Z,7.30
2019-02-22T09:02:19.402Z,7.90
2019-02-22T09:07:13.447Z,10.43
2019-02-22T09:09:39.715Z,8.20
2019-02-22T09:12:06.048Z,6.55
2019-02-22T09:14:40.284Z,6.60
2019-02-22T09:17:09.198Z,6.35
2019-02-22T09:19:35.692Z,6.40
2019-02-22T09:22:01.932Z,6.35
2019-02-22T09:24:28.156Z,6.15
2019-02-22T09:26:54.259Z,6.90
2019-02-22T09:29:20.505Z,6.15
2019-02-22T09:31:46.706Z,6.53
2019-02-22T09:34:13.095Z,7.28
2019-02-22T09:36:40.334Z,6.10
2019-02-22T09:39:06.544Z,5.33
2019-02-22T09:41:33.470Z,7.97
2019-02-22T09:44:02.750Z,6.22
2019-02-22T09:46:28.887Z,6.42
2019-02-22T09:48:55.109Z,7.50
2019-02-22T09:51:21.204Z,8.65
2019-02-22T09:53:51.003Z,8.80
2019-02-22T09:56:17.465Z,9.80
2019-02-22T09:58:48.127Z,9.83
2019-02-22T10:01:14.328Z,9.23
2019-02-22T10:03:40.529Z,9.15
2019-02-22T10:06:06.688Z,8.78
2019-02-22T10:08:35.559Z,9.20
2019-02-22T10:11:01.658Z,9.33
2019-02-22T10:13:28.011Z,9.35
2019-02-22T10:15:54.376Z,7.83
2019-02-22T10:18:21.558Z,7.53
2019-02-22T10:20:48.105Z,8.05
2019-02-22T10:23:14.357Z,9.58
2019-02-22T10:25:41.367Z,10.38
2019-02-22T10:28:17.322Z,10.65
2019-02-22T10:30:38.812Z,9.10
2019-02-22T10:33:05.863Z,9.10
2019-02-22T10:35:32.898Z,9.60
2019-02-22T10:38:00.306Z,8.70
2019-02-22T10:40:29.418Z,9.50
2019-02-22T10:42:57.229Z,10.18
2019-02-22T10:45:24.243Z,10.15
2019-02-22T10:47:51.340Z,11.30
2019-02-22T10:50:17.545Z,12.80
2019-02-22T10:52:43.739Z,15.00
2019-02-22T10:55:11.454Z,13.22
2019-02-22T10:57:37.787Z,12.07
2019-02-22T11:00:10.015Z,13.28
2019-02-22T11:02:36.320Z,14.00
2019-02-22T11:05:02.412Z,12.55
2019-02-22T11:07:30.544Z,10.30
2019-02-22T11:09:56.664Z,11.18
2019-02-22T11:12:22.891Z,10.80
2019-02-22T11:14:49.055Z,10.95
2019-02-22T11:17:15.260Z,11.83
2019-02-22T11:19:45.693Z,9.70
2019-02-22T11:22:09.672Z,7.30
2019-02-22T11:24:37.688Z,7.42
2019-02-22T11:27:04.764Z,7.90
2019-02-22T11:29:41.218Z,8.40
2019-02-22T11:32:08.706Z,9.50
2019-02-22T11:35:05.987Z,11.73
2019-02-22T11:37:32.331Z,10.78
2019-02-22T11:39:58.482Z,10.95
2019-02-22T11:42:24.687Z,10.23
2019-02-22T11:44:51.029Z,11.03
2019-02-22T11:47:17.248Z,10.48
2019-02-22T11:49:43.612Z,10.25
2019-02-22T11:52:18.760Z,9.23
2019-02-22T11:54:45.256Z,8.68
2019-02-22T11:57:11.500Z,9.15
2019-02-22T11:59:37.605Z,8.83
2019-02-22T12:02:03.819Z,8.48
2019-02-22T12:04:30.137Z,8.45
2019-02-22T12:06:56.345Z,8.58
2019-02-22T12:09:22.540Z,9.03
2019-02-22T12:11:48.877Z,9.30
2019-02-22T12:14:15.397Z,10.15
2019-02-22T12:16:42.604Z,12.00
2019-02-22T12:19:08.808Z,12.15
2019-02-22T12:21:35.082Z,10.35
2019-02-22T12:24:01.381Z,9.60
2019-02-22T12:26:27.632Z,10.50
2019-02-22T12:28:53.854Z,10.58
2019-02-22T12:31:20.081Z,10.15
2019-02-22T12:33:46.374Z,10.38
2019-02-22T12:36:12.667Z,9.40
2019-02-22T12:38:38.897Z,9.88
2019-02-22T12:41:10.867Z,10.48
2019-02-22T12:43:39.061Z,11.12
2019-02-22T12:46:05.205Z,9.70
2019-02-22T12:48:31.427Z,9.80
2019-02-22T12:50:57.614Z,9.53
2019-02-22T12:53:23.841Z,10.28
2019-02-22T12:55:49.968Z,10.98
2019-02-22T12:58:16.227Z,10.03
2019-02-22T13:00:42.294Z,11.40
2019-02-22T13:03:08.599Z,11.20
2019-02-22T13:05:34.962Z,10.40
2019-02-22T13:08:01.129Z,11.00
2019-02-22T13:10:27.284Z,11.60
2019-02-22T13:12:53.493Z,10.75
2019-02-22T13:15:19.630Z,10.03
2019-02-22T13:17:46.185Z,10.10
2019-02-22T13:25:46.403Z,8.75
2019-02-22T13:28:12.620Z,9.83
2019-02-22T13:30:38.931Z,8.73
2019-02-22T13:33:05.133Z,9.05
2019-02-22T13:35:31.372Z,8.70
2019-02-22T13:37:58.867Z,12.30
2019-02-22T13:40:52.493Z,18.42
2019-02-22T13:43:18.556Z,22.07
2019-02-22T13:47:37.223Z,23.35
2019-02-22T13:48:32.376Z,23.38
2019-02-22T13:50:58.840Z,23.80
2019-02-22T13:53:31.993Z,23.62
2019-02-22T13:56:08.241Z,21.85
2019-02-22T13:58:41.518Z,19.70
2019-02-22T14:03:58.488Z,14.65
2019-02-22T14:06:35.530Z,20.40
2019-02-22T14:12:15.859Z,20.45
2019-02-22T14:14:42.023Z,19.85
2019-02-22T14:17:08.420Z,21.85
2019-02-22T14:19:42.501Z,23.38
2019-02-22T14:22:08.614Z,23.12
2019-02-22T14:24:34.943Z,21.80
2019-02-22T14:27:02.020Z,22.77
2019-02-22T14:29:28.617Z,20.82
2019-02-22T14:31:55.061Z,21.10
2019-02-22T14:34:21.320Z,21.85
2019-02-22T14:36:47.879Z,20.57
2019-02-22T14:39:15.148Z,21.10
2019-02-22T14:41:41.422Z,20.75
2019-02-22T14:44:09.941Z,20.85
2019-02-22T14:46:36.175Z,19.85
2019-02-22T14:49:02.342Z,21.12
2019-02-22T14:51:28.494Z,16.90
2019-02-22T14:53:54.638Z,17.27
2019-02-22T14:56:20.908Z,17.62
2019-02-22T14:58:47.503Z,20.40
2019-02-22T15:01:13.654Z,19.27
2019-02-22T15:03:39.819Z,22.48
2019-02-22T15:06:05.955Z,20.95
2019-02-22T15:08:32.258Z,20.57
2019-02-22T15:10:58.409Z,20.30
2019-02-22T15:13:24.530Z,19.23
2019-02-22T15:16:07.742Z,19.27
2019-02-22T15:18:33.996Z,17.48
2019-02-22T15:21:00.202Z,18.62
2019-02-22T15:23:27.473Z,18.17
2019-02-22T15:25:54.045Z,19.75
2019-02-22T15:28:20.254Z,18.35
2019-02-22T15:30:46.762Z,19.15
2019-02-22T15:33:12.985Z,17.65
2019-02-22T15:35:39.230Z,19.60
2019-02-22T15:38:06.787Z,16.37
2019-02-22T15:40:39.296Z,16.55
2019-02-22T15:43:05.038Z,16.12
2019-02-22T15:45:31.232Z,17.60
2019-02-22T15:47:57.698Z,18.05
2019-02-22T15:50:23.923Z,14.98
2019-02-22T15:52:50.408Z,15.95
2019-02-22T15:55:16.687Z,15.43
2019-02-22T15:57:42.863Z,16.02
2019-02-22T16:00:18.550Z,15.28
2019-02-22T16:02:44.895Z,15.75
2019-02-22T16:05:13.200Z,14.25
2019-02-22T16:07:44.726Z,16.15
2019-02-22T16:10:08.593Z,15.43
2019-02-22T16:12:36.610Z,16.50
2019-02-22T16:15:05.682Z,17.05
2019-02-22T16:17:32.552Z,17.50
2019-02-22T16:19:59.691Z,16.82
2019-02-22T16:22:25.855Z,17.45
2019-02-22T16:24:52.043Z,16.77
2019-02-22T16:27:18.336Z,16.70
2019-02-22T16:29:44.447Z,14.90
2019-02-22T16:32:10.675Z,17.23
2019-02-22T16:34:43.504Z,18.75
2019-02-22T16:37:05.014Z,28.25
2019-02-22T16:39:31.172Z,19.27
2019-02-22T16:41:57.373Z,18.15
2019-02-22T16:44:23.481Z,20.27
2019-02-22T16:46:49.687Z,18.35
2019-02-22T16:49:15.785Z,19.23
2019-02-22T16:51:42.032Z,20.25
2019-02-22T16:54:08.120Z,19.70
2019-02-22T16:56:34.322Z,21.93
2019-02-22T16:59:00.492Z,20.40
2019-02-22T17:01:27.793Z,22.05
2019-02-22T17:03:54.191Z,22.73
2019-02-22T17:06:20.440Z,24.75
2019-02-22T17:08:47.738Z,19.32
2019-02-22T17:11:15.337Z,16.05
2019-02-22T17:13:41.720Z,18.80
2019-02-22T17:16:08.233Z,19.77
2019-02-22T17:18:38.388Z,19.55
2019-02-22T17:21:05.110Z,17.82
2019-02-22T17:23:33.436Z,17.40
2019-02-22T17:25:59.614Z,18.50
2019-02-22T17:28:25.739Z,21.25
2019-02-22T17:30:51.923Z,21.42
2019-02-22T17:33:18.046Z,23.20
2019-02-22T17:35:45.006Z,23.55
2019-02-22T17:38:14.316Z,22.13
2019-02-22T17:40:40.501Z,16.60
2019-02-22T17:43:06.741Z,18.40
2019-02-22T17:45:33.739Z,19.30
2019-02-22T17:48:00.276Z,18.95
2019-02-22T17:50:26.487Z,19.73
2019-02-22T17:52:52.740Z,19.20
2019-02-22T17:55:21.721Z,22.37
2019-02-22T17:57:48.680Z,17.05
2019-02-22T18:00:23.927Z,18.52
2019-02-22T18:02:50.117Z,17.62
2019-02-22T18:05:16.205Z,15.13
2019-02-22T18:07:42.402Z,15.98
2019-02-22T18:10:09.500Z,14.93
2019-02-22T18:12:36.366Z,16.65
2019-02-22T18:15:04.506Z,16.67
2019-02-22T18:17:30.704Z,20.20
2019-02-22T18:19:57.415Z,19.45
2019-02-22T18:22:26.253Z,19.98
2019-02-22T18:24:52.528Z,20.20
2019-02-22T18:27:22.443Z,18.05
2019-02-22T18:29:48.693Z,15.13
2019-02-22T18:32:15.755Z,13.28
2019-02-22T18:34:42.748Z,13.83
2019-02-22T18:37:10.092Z,13.72
2019-02-22T18:39:36.306Z,18.55
2019-02-22T18:42:05.412Z,18.12
2019-02-22T18:44:31.623Z,21.87
2019-02-22T18:46:57.732Z,21.07
2019-02-22T18:49:23.896Z,18.05
2019-02-22T18:51:50.265Z,19.57
2019-02-22T18:54:16.750Z,18.85
2019-02-22T18:56:42.942Z,20.08
2019-02-22T18:59:09.212Z,19.50
2019-02-22T19:01:37.343Z,18.65
2019-02-22T19:04:03.758Z,19.50
2019-02-22T19:06:30.607Z,18.73
2019-02-22T19:08:56.851Z,16.90
2019-02-22T19:11:23.487Z,15.88
2019-02-22T19:13:53.671Z,15.38
2019-02-22T19:16:21.802Z,14.13
2019-02-22T19:18:49.983Z,16.10
2019-02-22T19:21:16.211Z,16.80
2019-02-22T19:23:42.398Z,16.30
2019-02-22T19:26:08.504Z,15.78
2019-02-22T19:28:35.202Z,15.32
2019-02-22T19:31:01.308Z,15.60
2019-02-22T19:33:27.495Z,15.50
2019-02-22T19:35:53.581Z,16.25
2019-02-22T19:38:20.532Z,17.48
2019-02-22T19:40:48.190Z,15.98
2019-02-22T19:43:17.531Z,16.15
2019-02-22T19:45:43.623Z,15.45
2019-02-22T19:48:11.559Z,16.35
2019-02-22T19:50:41.415Z,14.95
2019-02-22T19:53:06.016Z,16.80
2019-02-22T19:55:32.107Z,15.75
2019-02-22T19:57:58.296Z,14.58
2019-02-22T20:00:26.426Z,15.08
2019-02-22T20:02:52.640Z,15.90
2019-02-22T20:05:18.838Z,14.68
2019-02-22T20:07:45.097Z,15.25
2019-02-22T20:10:19.365Z,15.23
2019-02-22T20:12:47.741Z,15.32
2019-02-22T20:15:15.737Z,15.23
2019-02-22T20:17:53.007Z,14.83
2019-02-22T20:20:12.792Z,13.55
2019-02-22T20:22:39.002Z,15.15
2019-02-22T20:25:05.668Z,15.48
2019-02-22T20:27:33.058Z,14.98
2019-02-22T20:30:01.246Z,15.32
2019-02-22T20:32:27.946Z,15.98
2019-02-22T20:34:54.169Z,15.43
2019-02-22T20:37:20.722Z,15.40
2019-02-22T20:39:50.765Z,16.17
2019-02-22T20:42:19.153Z,16.20
2019-02-22T20:44:46.595Z,16.12
2019-02-22T20:47:12.782Z,15.05
2019-02-22T20:49:39.280Z,16.35
2019-02-22T20:52:06.494Z,16.95
2019-02-22T20:54:32.707Z,16.23
2019-02-22T20:57:00.816Z,17.27
2019-02-22T20:59:30.753Z,17.37
2019-02-22T21:01:57.294Z,16.77
2019-02-22T21:04:23.595Z,17.67
2019-02-22T21:06:49.700Z,16.10
2019-02-22T21:09:15.879Z,16.75
2019-02-22T21:11:42.094Z,17.02
2019-02-22T21:14:11.374Z,16.82
2019-02-22T21:16:37.905Z,16.93
2019-02-22T21:19:06.093Z,16.23
2019-02-22T21:21:32.320Z,17.52
2019-02-22T21:23:58.502Z,16.52
2019-02-22T21:26:26.229Z,15.83
2019-02-22T21:28:52.507Z,17.15
2019-02-22T21:31:18.597Z,18.00
2019-02-22T21:33:44.840Z,17.15
2019-02-22T21:36:10.945Z,18.48
2019-02-22T21:38:37.136Z,18.80
2019-02-22T21:41:03.245Z,19.30
2019-02-22T21:43:31.333Z,18.12
2019-02-22T21:46:01.673Z,18.48
2019-02-22T21:48:31.230Z,18.77
2019-02-22T21:51:00.499Z,19.85
2019-02-22T21:53:26.951Z,18.23
2019-02-22T21:55:53.139Z,19.77
2019-02-22T21:58:19.353Z,19.05
2019-02-22T22:00:45.567Z,20.30
2019-02-22T22:03:11.689Z,19.62
2019-02-22T22:05:37.889Z,20.57
2019-02-22T22:08:04.970Z,18.27
2019-02-22T22:10:31.367Z,19.85
2019-02-22T22:12:57.443Z,20.65
2019-02-22T22:15:23.649Z,20.40
2019-02-22T22:17:49.740Z,19.82
2019-02-22T22:20:16.349Z,19.70
2019-02-22T22:22:42.495Z,20.20
2019-02-22T22:25:12.725Z,21.75
2019-02-22T22:27:38.909Z,14.38
2019-02-22T22:30:07.815Z,18.10
2019-02-22T22:32:33.999Z,20.27
2019-02-22T22:35:00.342Z,19.50
2019-02-22T22:37:27.139Z,19.73
2019-02-22T22:39:53.395Z,19.80
2019-02-22T22:42:20.388Z,20.25
2019-02-22T22:44:46.941Z,19.30
2019-02-22T22:47:13.087Z,19.30
2019-02-22T22:49:39.227Z,18.95
2019-02-22T22:52:05.627Z,18.57
2019-02-22T22:54:32.867Z,19.32
2019-02-22T22:56:59.357Z,19.67
2019-02-22T22:59:27.720Z,20.57
2019-02-22T23:01:54.623Z,20.10
2019-02-22T23:04:20.801Z,19.17
2019-02-22T23:06:47.142Z,18.98
2019-02-22T23:09:20.144Z,19.80
2019-02-22T23:11:46.809Z,19.55
2019-02-22T23:14:13.039Z,18.32
2019-02-22T23:16:39.266Z,19.92
2019-02-22T23:19:05.380Z,28.27
2019-02-22T23:21:31.669Z,20.65
2019-02-22T23:23:57.930Z,19.27
2019-02-22T23:26:24.210Z,18.37
2019-02-22T23:28:50.305Z,18.17
2019-02-22T23:31:16.568Z,18.87
2019-02-22T23:33:42.692Z,18.77
2019-02-22T23:36:08.867Z,18.07
2019-02-22T23:38:36.054Z,21.75
2019-02-22T23:41:02.257Z,18.77
2019-02-22T23:43:29.307Z,20.57
2019-02-22T23:45:55.515Z,19.50
2019-02-22T23:48:21.666Z,18.82
2019-02-22T23:50:47.898Z,19.17
2019-02-22T23:53:14.141Z,19.23
2019-02-22T23:55:40.296Z,20.20
2019-02-22T23:58:06.438Z,20.10
